GCLA Airport Information

Runway Information
Runway 36 Length 7218 ft width 148 ft
Elevation 103 ft Threshold ft Heading 359
Runway 18 Length 7218 ft Width 148 ft
Elevation 65 ft Threshold ft Heading 179
Airport Frequencies
Type APP Name CANARIAS A Frequency 126.1 MHZ
Type ATIS Name INFO Frequency 118.6 MHZ
Type GND Name GND Frequency 121.8 MHZ
Type TWR Name TWR Frequency 118.9 MHZ
Airport Navaids
Type DME Name La Palma Frequency 112400 KHZ
Type NDB Name La Palma Frequency 389 KHZ
Airport Weather Information & NOTAM
ADDS - METARS form results

(1320 UTC 26 June 2022)
Data provider http://aviationweather.gov/metar/data/
 
METAR text: GCLA 261300Z 02011KT 9999 FEW024 BKN040 23/17 Q1020
Conditions at: GCLA (LA PALMA AIRPORT, ES) observed 1300 UTC 26 June 2022
Temperature: 23.0°C (73°F)
Dewpoint: 17.0°C (63°F) [RH = 69%]
Pressure (altimeter): 30.12 inches Hg (1020.0 mb)
Winds: from the NNE (20 degrees) at 13 MPH (11 knots; 5.7 m/s)
Visibility: 6 or more miles (10+ km)
Ceiling: 4000 feet AGL
Clouds: few clouds at 2400 feet AGL
broken clouds at 4000 feet AGL
Weather: no significant weather observed at this time

METAR text: GCLA 261230Z 03011KT 9999 FEW024 BKN035 22/16 Q1020
Conditions at: GCLA (LA PALMA AIRPORT, ES) observed 1230 UTC 26 June 2022
Temperature: 22.0°C (72°F)
Dewpoint: 16.0°C (61°F) [RH = 69%]
Pressure (altimeter): 30.12 inches Hg (1020.0 mb)
Winds: from the NNE (30 degrees) at 13 MPH (11 knots; 5.7 m/s)
Visibility: 6 or more miles (10+ km)
Ceiling: 3500 feet AGL
Clouds: few clouds at 2400 feet AGL
broken clouds at 3500 feet AGL
Weather: no significant weather observed at this time

Forecast for: GCLA (LA PALMA AIRPORT, ES)
Text: TAF GCLA 260800Z 2609/2709 01013KT 9999 SCT030 TX23/2614Z TN20/2706Z
Forecast period: 0900 UTC 26 June 2022 to 0900 UTC 27 June 2022
Forecast type: FROM: standard forecast or significant change
Winds: from the N (10 degrees) at 15 MPH (13 knots; 6.7 m/s)
Visibility: 6 or more miles (10+ km)
Ceiling: at least 12,000 feet AGL
Clouds: scattered clouds at 3000 feet AGL
Weather: no significant weather forecast for this period
Text: TEMPO 2609/2615 VRB05KT
Forecast period: 0900 to 1500 UTC 26 June 2022
Forecast type: TEMPORARY: The following changes expected for less than half the time period
Winds: variable direction winds at 6 MPH (5 knots; 2.6 m/s)
Visibility: missing
Ceiling: unknown
Clouds: missing
Weather: no significant weather forecast for this period
Text: PROB30
Forecast period: 0900 to 1500 UTC 26 June 2022
Forecast type: TEMPORARY: The following changes expected for less than half the time period
Visibility: 2.80 miles (4.51 km)
Ceiling: unknown
Clouds: missing
Weather: DZ  (moderate drizzle)